Time;durP1;ratioP1;P1;durP2;ratioP2;P2;SDS_P1;SDS_P2;PMS_P1;PMS_P2;Temp;Humidity;BMP_temperature;BMP_pressure;BME280_temperature;BME280_humidity;BME280_pressure;Samples;Min_cycle;Max_cycle;Signal;HPM_P1;HPM_P2
2023/07/25 00:04:16;;;;;;;9.30;7.50;;;;;;;19.47;73.85;97294.36;435221;1255;108580;-42
2023/07/25 00:14:23;;;;;;;11.80;8.00;;;;;;;19.63;73.72;97293.30;434807;1254;451413;-42
2023/07/25 00:24:30;;;;;;;13.20;8.20;;;;;;;19.68;73.34;97298.73;435209;1256;111393;-44
2023/07/25 00:34:37;;;;;;;18.50;8.40;;;;;;;19.69;73.41;97300.05;435018;1256;107922;-42
2023/07/25 00:44:44;;;;;;;10.30;7.60;;;;;;;19.56;73.43;97309.87;435219;1253;99365;-42
2023/07/25 00:54:51;;;;;;;13.30;7.70;;;;;;;19.48;73.54;97310.45;435128;1266;107497;-43
2023/07/25 01:04:59;;;;;;;13.00;9.60;;;;;;;19.43;73.75;97304.61;435171;1252;99229;-42
2023/07/25 01:15:04;;;;;;;12.90;7.70;;;;;;;19.31;73.79;97312.55;435126;1256;111832;-42
2023/07/25 01:25:11;;;;;;;12.50;8.00;;;;;;;19.25;73.86;97314.81;435159;1257;106879;-42
2023/07/25 01:35:16;;;;;;;13.20;8.40;;;;;;;19.29;74.09;97309.95;435950;1251;98004;-43
2023/07/25 01:45:22;;;;;;;11.90;9.00;;;;;;;19.36;74.15;97313.58;435373;1254;107999;-41
2023/07/25 02:05:35;;;;;;;10.20;7.40;;;;;;;19.29;73.82;97311.30;435142;1256;112047;-41
2023/07/25 02:15:43;;;;;;;13.50;9.20;;;;;;;19.25;73.58;97316.67;435193;1256;107126;-41
2023/07/25 02:25:50;;;;;;;10.50;8.70;;;;;;;19.18;73.64;97338.16;435128;1253;98817;-42
2023/07/25 02:35:56;;;;;;;11.50;7.90;;;;;;;19.12;73.41;97334.58;435078;1257;108453;-43
2023/07/25 02:46:04;;;;;;;12.50;8.10;;;;;;;19.01;73.15;97335.98;435073;1266;99221;-43
2023/07/25 02:56:12;;;;;;;10.80;8.00;;;;;;;18.86;73.20;97344.54;434969;1256;112012;-42
2023/07/25 03:06:19;;;;;;;16.00;8.00;;;;;;;18.80;73.37;97352.77;435088;1254;106728;-43
2023/07/25 03:16:26;;;;;;;13.00;8.60;;;;;;;18.74;73.31;97353.41;435062;1256;99242;-42
2023/07/25 03:26:33;;;;;;;14.10;7.40;;;;;;;18.61;73.24;97353.02;435062;1256;108437;-43
2023/07/25 03:36:40;;;;;;;13.70;8.40;;;;;;;18.61;73.28;97364.14;434911;1256;99301;-42
2023/07/25 03:46:47;;;;;;;11.50;7.20;;;;;;;18.79;73.31;97361.23;435157;1257;112943;-43
2023/07/25 03:56:55;;;;;;;11.20;8.20;;;;;;;19.28;73.16;97370.76;435042;1254;107287;-42
2023/07/25 04:07:02;;;;;;;10.10;7.60;;;;;;;19.65;72.50;97365.10;435150;1254;98104;-43
2023/07/25 04:17:09;;;;;;;9.50;7.10;;;;;;;19.47;71.99;97360.15;434900;1265;107304;-44
2023/07/25 04:27:16;;;;;;;14.00;7.60;;;;;;;20.89;72.03;97368.30;435144;1257;97997;-42
2023/07/25 04:37:23;;;;;;;9.10;7.30;;;;;;;22.96;70.42;97368.36;435054;1256;111601;-43
2023/07/25 04:47:30;;;;;;;10.60;6.00;;;;;;;24.44;68.40;97358.05;435052;1256;108407;-42
2023/07/25 04:57:37;;;;;;;8.90;5.80;;;;;;;25.53;66.33;97360.85;435076;1257;98002;-43
2023/07/25 05:07:44;;;;;;;11.50;4.90;;;;;;;26.43;64.30;97381.87;435200;1256;108643;-43
2023/07/25 05:17:51;;;;;;;7.90;5.20;;;;;;;26.98;62.03;97379.13;435129;1256;98831;-41
2023/07/25 05:27:58;;;;;;;7.20;5.50;;;;;;;27.28;60.03;97380.08;435205;1254;112072;-42
2023/07/25 05:38:07;;;;;;;11.30;4.80;;;;;;;27.13;58.54;97370.20;435003;1257;109234;-42
2023/07/25 05:48:14;;;;;;;6.50;4.90;;;;;;;26.52;56.71;97377.52;435118;1256;98878;-41
2023/07/25 05:58:21;;;;;;;5.90;3.70;;;;;;;26.68;56.17;97388.15;435135;1257;107542;-43
2023/07/25 06:08:28;;;;;;;5.60;4.10;;;;;;;26.80;55.10;97380.89;435045;1266;99259;-43
2023/07/25 06:18:35;;;;;;;7.20;4.10;;;;;;;27.05;54.21;97384.29;434958;1257;110610;-41
2023/07/25 06:28:42;;;;;;;6.70;3.90;;;;;;;27.41;53.51;97390.39;435107;1254;107314;-42
2023/07/25 06:38:49;;;;;;;3.40;3.00;;;;;;;27.75;52.88;97389.39;435105;1253;99286;-42
2023/07/25 06:48:56;;;;;;;3.60;2.50;;;;;;;27.71;50.84;97398.58;435089;1254;108229;-42
2023/07/25 06:59:03;;;;;;;3.20;2.50;;;;;;;27.77;50.18;97396.08;435137;1257;99256;-43
2023/07/25 07:09:10;;;;;;;12.10;2.00;;;;;;;27.94;49.14;97394.86;435138;1254;111593;-42
2023/07/25 07:19:17;;;;;;;3.30;2.10;;;;;;;28.16;48.54;97405.31;435110;1254;108314;-41
2023/07/25 07:29:24;;;;;;;3.40;2.60;;;;;;;28.10;47.73;97399.44;435295;1257;99228;-43
2023/07/25 07:39:31;;;;;;;3.20;2.10;;;;;;;27.92;46.59;97399.49;435299;1256;108470;-43
2023/07/25 07:49:38;;;;;;;3.60;2.50;;;;;;;27.88;46.27;97378.59;435153;1254;98868;-42
2023/07/25 07:59:43;;;;;;;3.70;2.60;;;;;;;28.27;46.48;97350.91;435314;1253;112423;-42
2023/07/25 08:09:53;;;;;;;3.30;3.00;;;;;;;28.52;45.45;97365.08;435142;1254;108498;-45
2023/07/25 08:20:01;;;;;;;3.60;3.30;;;;;;;27.71;45.84;97389.03;435166;1257;99221;-42
2023/07/25 08:30:10;;;;;;;3.30;2.90;;;;;;;28.04;46.11;97396.52;435145;1264;108226;-42
2023/07/25 08:40:17;;;;;;;2.90;2.50;;;;;;;27.90;45.95;97407.70;435347;1257;99238;-41
2023/07/25 08:50:23;;;;;;;2.70;2.50;;;;;;;27.87;46.36;97398.73;435436;1254;111854;-42
2023/07/25 09:10:38;;;;;;;4.30;3.30;;;;;;;27.23;46.29;97366.74;435261;1257;99594;-42
2023/07/25 09:20:46;;;;;;;4.80;3.00;;;;;;;26.95;46.73;97376.30;435185;1257;108733;-42
2023/07/25 09:30:53;;;;;;;4.80;3.40;;;;;;;27.29;47.52;97386.35;435072;1252;99255;-42
2023/07/25 09:41:02;;;;;;;4.00;3.00;;;;;;;27.51;46.84;97381.90;435018;1256;112122;-42
2023/07/25 09:51:08;;;;;;;4.20;3.40;;;;;;;27.87;46.89;97363.81;435285;1256;108871;-42
2023/07/25 10:01:16;;;;;;;8.20;3.50;;;;;;;27.64;46.31;97351.72;435255;1256;99218;-43
2023/07/25 10:11:24;;;;;;;5.10;3.60;;;;;;;27.79;46.39;97360.26;435048;1253;107846;-45
2023/07/25 10:21:46;;;;;;;6.90;4.10;;;;;;;28.12;46.45;97360.79;435243;1256;99414;-42
2023/07/25 10:31:52;;;;;;;4.70;3.70;;;;;;;28.58;45.87;97326.43;435106;1256;111832;-42
2023/07/25 10:42:01;;;;;;;5.30;3.70;;;;;;;28.39;45.26;97308.67;435115;1253;108410;-41
2023/07/25 10:52:09;;;;;;;3.80;3.50;;;;;;;28.09;44.94;97315.73;435231;1256;99214;-42
2023/07/25 11:02:28;;;;;;;4.50;3.50;;;;;;;28.02;45.06;97316.46;435215;1256;107775;-42
2023/07/25 11:22:42;;;;;;;3.60;3.20;;;;;;;27.98;44.34;97285.21;435245;1257;111732;-42
2023/07/25 11:32:49;;;;;;;3.70;3.00;;;;;;;27.82;44.49;97272.52;435209;1254;107434;-42
2023/07/25 11:42:54;;;;;;;4.50;2.90;;;;;;;27.65;44.51;97267.47;435236;1257;98306;-43
2023/07/25 11:53:02;;;;;;;3.40;2.80;;;;;;;27.51;44.52;97253.66;434967;1257;109415;-42
2023/07/25 12:03:16;;;;;;;3.00;2.60;;;;;;;27.35;44.69;97239.88;435338;1257;99266;-42
2023/07/25 12:13:24;;;;;;;3.40;3.10;;;;;;;27.31;44.36;97229.05;435153;1256;390290;-44
2023/07/25 12:33:35;;;;;;;5.90;2.50;;;;;;;26.50;44.85;97237.39;435140;1256;98916;-42
2023/07/25 12:43:42;;;;;;;3.60;2.60;;;;;;;25.87;45.20;97247.07;435267;1257;106623;-42
2023/07/25 12:53:49;;;;;;;5.30;2.50;;;;;;;25.35;46.57;97260.17;435158;1254;98577;-41
2023/07/25 13:03:57;;;;;;;7.00;2.90;;;;;;;24.66;48.67;97248.85;435177;1257;112636;-42
2023/07/25 13:14:05;;;;;;;4.80;2.80;;;;;;;24.01;50.81;97240.45;435351;1256;108430;-41
2023/07/25 13:24:12;;;;;;;3.80;2.50;;;;;;;23.24;52.52;97244.01;435263;1254;99324;-42
2023/07/25 13:34:18;;;;;;;;;;;;;;;22.87;54.70;97243.48;435260;1252;108418;-43
2023/07/25 13:44:25;;;;;;;3.20;2.90;;;;;;;22.68;56.66;97251.16;434988;1254;99221;-43
2023/07/25 14:14:47;;;;;;;2.90;2.60;;;;;;;22.29;59.60;97238.98;435268;1256;99243;-44
2023/07/25 14:24:53;;;;;;;;;;;;;;;22.13;60.16;97248.75;435186;1256;108604;-43
2023/07/25 14:35:01;;;;;;;5.40;3.00;;;;;;;21.80;61.04;97258.92;435165;1254;98616;-43
2023/07/25 14:45:08;;;;;;;5.40;3.20;;;;;;;21.65;62.03;97272.96;435340;1256;112927;-42
2023/07/25 14:55:16;;;;;;;6.90;3.50;;;;;;;21.50;63.05;97267.33;435250;1256;107596;-41
2023/07/25 15:05:27;;;;;;;5.80;3.00;;;;;;;21.50;63.47;97259.64;435101;1256;97992;-45
2023/07/25 15:15:34;;;;;;;3.50;3.20;;;;;;;21.66;64.10;97246.12;435133;1254;108131;-42
2023/07/25 15:25:42;;;;;;;3.50;2.70;;;;;;;21.99;64.57;97242.04;435260;1254;99117;-43
2023/07/25 15:35:49;;;;;;;4.90;4.00;;;;;;;22.02;64.84;97243.58;435125;1256;112848;-42
2023/07/25 15:45:56;;;;;;;6.60;4.30;;;;;;;21.84;65.20;97249.84;435199;1256;108742;-43
2023/07/25 15:56:03;;;;;;;6.40;4.50;;;;;;;21.65;65.60;97250.63;435157;1257;98068;-43
2023/07/25 16:06:10;;;;;;;7.30;4.20;;;;;;;21.57;66.13;97246.45;435227;1256;108897;-43
2023/07/25 16:26:23;;;;;;;8.50;6.20;;;;;;;21.45;66.90;97230.51;435100;1253;110168;-44
2023/07/25 16:36:31;;;;;;;7.10;5.50;;;;;;;21.22;67.18;97226.52;435182;1257;107294;-43
2023/07/25 16:46:38;;;;;;;7.40;5.50;;;;;;;21.04;67.77;97235.63;435005;1256;99246;-44
2023/07/25 16:56:43;;;;;;;8.60;6.20;;;;;;;20.84;68.33;97265.03;435142;1257;108814;-43
2023/07/25 17:06:48;;;;;;;11.60;7.70;;;;;;;20.85;68.94;97264.73;435194;1253;99341;-43
2023/07/25 17:16:56;;;;;;;7.80;6.30;;;;;;;20.64;68.86;97237.35;435247;1254;111194;-42
2023/07/25 17:27:03;;;;;;;10.30;8.10;;;;;;;20.60;69.52;97244.90;435160;1256;108338;-42
2023/07/25 17:37:09;;;;;;;;;;;;;;;20.75;69.78;97239.27;435176;1256;99310;-43
2023/07/25 17:47:17;;;;;;;5.80;4.80;;;;;;;20.65;70.04;97237.56;435310;1256;107756;-44
2023/07/25 17:57:24;;;;;;;8.80;6.40;;;;;;;20.57;70.20;97252.67;435079;1256;98683;-42
2023/07/25 18:07:31;;;;;;;7.10;5.10;;;;;;;20.29;70.37;97256.14;435087;1256;111661;-43
2023/07/25 18:27:45;;;;;;;5.90;4.80;;;;;;;19.72;71.14;97274.84;435281;1256;99237;-43
2023/07/25 18:37:52;;;;;;;5.10;4.60;;;;;;;19.45;71.47;97279.61;435174;1254;109497;-43
2023/07/25 18:48:00;;;;;;;10.20;6.60;;;;;;;19.14;71.68;97283.27;435345;1254;99260;-44
2023/07/25 18:58:06;;;;;;;9.50;4.60;;;;;;;18.77;71.80;97295.16;435132;1257;111469;-44
2023/07/25 19:08:13;;;;;;;7.70;5.00;;;;;;;18.54;72.51;97307.44;435118;1254;108129;-42
2023/07/25 19:18:19;;;;;;;7.10;5.40;;;;;;;18.33;72.81;97312.21;435228;1256;98075;-43
2023/07/25 19:28:25;;;;;;;7.70;5.10;;;;;;;18.29;73.18;97305.06;435215;1256;107709;-43
2023/07/25 19:38:31;;;;;;;12.60;7.80;;;;;;;18.16;73.38;97323.23;435167;1254;99378;-43
2023/07/25 19:48:38;;;;;;;10.00;7.10;;;;;;;17.87;73.60;97341.95;435192;1256;112139;-43
2023/07/25 19:58:46;;;;;;;13.60;9.60;;;;;;;17.90;74.54;97363.59;434958;1257;108269;-42
2023/07/25 20:08:53;;;;;;;14.20;12.00;;;;;;;18.12;74.80;97360.38;434976;1256;99268;-42
2023/07/25 20:18:59;;;;;;;15.80;11.10;;;;;;;18.06;75.00;97354.02;435112;1256;107977;-42
2023/07/25 20:29:07;;;;;;;12.50;10.10;;;;;;;17.97;75.14;97347.52;435140;1257;99205;-41
2023/07/25 20:39:14;;;;;;;14.50;11.10;;;;;;;17.89;75.18;97353.57;435077;1256;112952;-43
2023/07/25 20:49:21;;;;;;;14.10;11.60;;;;;;;17.69;75.40;97357.02;435109;1254;107259;-41
2023/07/25 20:59:29;;;;;;;14.60;10.00;;;;;;;17.53;75.51;97360.59;435171;1256;99880;-41
2023/07/25 21:09:36;;;;;;;12.90;8.40;;;;;;;17.37;75.46;97369.13;435152;1257;108547;-40
2023/07/25 21:19:43;;;;;;;13.70;9.10;;;;;;;17.34;75.64;97364.23;435209;1256;98859;-42
2023/07/25 21:39:57;;;;;;;10.70;7.60;;;;;;;17.27;76.30;97384.05;435141;1256;107832;-40
2023/07/25 21:50:03;;;;;;;9.00;7.30;;;;;;;17.44;76.73;97382.85;435254;1256;99204;-42
2023/07/25 22:00:12;;;;;;;7.70;6.30;;;;;;;17.51;76.64;97384.73;435277;1256;108907;-42
2023/07/25 22:10:19;;;;;;;12.60;9.50;;;;;;;17.37;76.53;97381.88;435136;1256;99208;-42
2023/07/25 22:30:29;;;;;;;16.20;9.10;;;;;;;17.02;76.99;97363.03;434992;1256;108140;-42
2023/07/25 22:40:36;;;;;;;12.00;9.00;;;;;;;17.06;77.34;97360.54;435100;1257;99240;-42
2023/07/25 22:50:43;;;;;;;14.20;9.50;;;;;;;17.03;77.72;97338.39;435091;1254;108328;-41
2023/07/25 23:10:57;;;;;;;16.00;10.20;;;;;;;17.03;78.20;97343.73;435040;1265;112274;-41
2023/07/25 23:21:05;;;;;;;24.90;12.50;;;;;;;17.03;78.27;97357.98;434938;1256;107318;-41
2023/07/25 23:31:12;;;;;;;22.80;14.20;;;;;;;17.10;78.78;97370.45;434942;1254;99323;-43
2023/07/25 23:41:20;;;;;;;18.90;16.90;;;;;;;17.23;79.04;97377.46;435086;1257;107992;-42
